Time;durP1;ratioP1;P1;durP2;ratioP2;P2;SDS_P1;SDS_P2;PMS_P1;PMS_P2;Temp;Humidity;BMP_temperature;BMP_pressure;BME280_temperature;BME280_humidity;BME280_pressure;Samples;Min_cycle;Max_cycle;Signal;HPM_P1;HPM_P2
2022/01/15 10:38:34;;;;;;;;;73.25;58.50;;;;;16.53;40.44;102267.41;5065870;27;45833;-62
2022/01/15 10:40:59;;;;;;;;;77.25;63.25;;;;;16.22;41.07;102273.53;5050400;28;45535;-62
2022/01/15 10:43:34;;;;;;;;;81.50;63.25;;;;;15.89;38.77;102275.16;5049918;28;45389;-63
2022/01/15 10:46:02;;;;;;;;;78.00;61.00;;;;;15.73;42.87;102271.56;5050391;28;45466;-63
2022/01/15 10:48:35;;;;;;;;;66.25;50.75;;;;;15.58;42.93;102268.81;5049289;28;46918;-65
2022/01/15 10:51:03;;;;;;;;;76.75;59.75;;;;;15.45;41.58;102270.50;5049529;28;45463;-62
2022/01/15 10:53:39;;;;;;;;;79.00;63.00;;;;;15.37;43.20;102264.28;5050499;28;45530;-67
2022/01/15 10:56:06;;;;;;;;;75.50;60.50;;;;;15.27;43.49;102261.56;5052224;28;45567;-62
2022/01/15 10:58:32;;;;;;;;;71.75;57.00;;;;;15.20;44.73;102261.53;5050970;27;45734;-63
2022/01/15 11:00:58;;;;;;;;;69.25;54.00;;;;;15.11;44.77;102243.84;5050351;28;45786;-63
2022/01/15 11:03:38;;;;;;;;;67.25;50.50;;;;;15.21;45.78;102255.34;5053216;28;45369;-63
2022/01/15 11:06:08;;;;;;;;;63.50;47.75;;;;;15.31;45.79;102251.06;5030203;28;45542;-61
2022/01/15 11:08:39;;;;;;;;;64.75;50.50;;;;;15.41;45.84;102261.66;5046847;28;47957;-63
2022/01/15 11:11:07;;;;;;;;;71.75;54.00;;;;;15.48;45.66;102255.53;5049646;28;45441;-62
2022/01/15 11:13:34;;;;;;;;;78.75;62.00;;;;;15.54;44.92;102254.72;5049902;28;45523;-64
2022/01/15 11:16:08;;;;;;;;;76.75;60.75;;;;;15.52;44.87;102253.81;5050591;28;45414;-63
2022/01/15 11:18:36;;;;;;;;;73.00;56.75;;;;;15.52;45.30;102248.53;5049213;28;45528;-66
2022/01/15 11:21:06;;;;;;;;;74.25;57.25;;;;;15.52;44.15;102250.25;5049863;28;45391;-62
2022/01/15 11:23:33;;;;;;;;;75.00;56.75;;;;;15.48;45.05;102247.63;5049630;28;45485;-62
2022/01/15 11:26:04;;;;;;;;;60.25;46.00;;;;;15.42;45.38;102234.41;5066019;28;45895;-62
2022/01/15 11:28:33;;;;;;;;;63.00;49.50;;;;;15.48;45.10;102233.53;5049174;28;46802;-62
2022/01/15 11:31:03;;;;;;;;;65.25;50.25;;;;;15.46;46.05;102222.09;5052741;28;45885;-65
2022/01/15 11:33:31;;;;;;;;;63.75;51.00;;;;;15.53;44.60;102225.66;5050134;28;45509;-60
2022/01/15 11:35:58;;;;;;;;;64.50;46.25;;;;;15.48;45.29;102222.97;5049530;28;45481;-61
2022/01/15 11:38:45;;;;;;;;;61.00;46.75;;;;;15.22;44.18;102226.34;5068979;28;46174;-61
2022/01/15 11:41:26;;;;;;;;;63.50;48.25;;;;;14.84;45.44;102218.16;5069604;28;45619;-62
2022/01/15 11:43:52;;;;;;;;;62.25;47.00;;;;;14.48;46.06;102219.56;5069310;28;45519;-62
2022/01/15 11:46:41;;;;;;;;;73.25;57.25;;;;;14.12;45.44;102217.44;5069577;28;45563;-62
2022/01/15 11:49:30;;;;;;;;;78.25;56.00;;;;;13.67;45.49;102213.41;5059734;27;45698;-61
2022/01/15 11:52:17;;;;;;;;;88.00;81.00;;;;;13.23;44.74;102211.00;5055608;28;45595;-61
2022/01/15 11:54:49;;;;;;;;;89.00;72.00;;;;;12.82;44.89;102206.00;5037635;28;45389;-62
2022/01/15 11:57:47;;;;;;;;;87.50;69.25;;;;;12.45;45.86;102202.72;5059145;28;45733;-62
2022/01/15 12:00:22;;;;;;;;;77.75;61.50;;;;;11.95;46.84;102166.78;5053652;28;46370;-62
2022/01/15 12:03:03;;;;;;;;;82.00;63.75;;;;;11.95;47.15;102194.78;5056486;28;45473;-61
2022/01/15 12:05:37;;;;;;;;;79.75;62.25;;;;;11.85;47.41;102180.56;5056852;28;45471;-62
2022/01/15 12:08:03;;;;;;;;;81.25;61.50;;;;;11.69;47.49;102179.38;5056108;28;45579;-62
2022/01/15 12:10:49;;;;;;;;;70.75;53.75;;;;;11.40;47.29;102161.28;5055825;28;46170;-63
2022/01/15 12:13:21;;;;;;;;;72.00;55.50;;;;;11.23;48.58;102167.91;5049588;28;45544;-61
2022/01/15 12:15:49;;;;;;;;;69.50;55.25;;;;;10.93;48.91;102147.09;5038869;28;45366;-61
2022/01/15 12:18:17;;;;;;;;;86.00;75.00;;;;;10.85;49.54;102170.53;5055434;28;45564;-62
2022/01/15 12:20:43;;;;;;;;;86.00;71.33;;;;;10.58;49.54;102144.53;5054809;28;45656;-62
2022/01/15 12:23:18;;;;;;;;;76.00;65.33;;;;;10.55;50.16;102154.94;5054908;28;45691;-62
2022/01/15 12:25:44;;;;;;;;;82.00;67.33;;;;;10.36;50.67;102146.63;5055196;28;45497;-62
2022/01/15 12:28:17;;;;;;;;;79.00;69.00;;;;;10.34;50.99;102150.03;5055185;28;45437;-61
2022/01/15 12:30:50;;;;;;;;;82.00;67.33;;;;;10.25;50.94;102149.75;5056982;28;46892;-62
2022/01/15 12:33:18;;;;;;;;;78.00;67.00;;;;;10.09;50.99;102144.16;5039587;28;45572;-62
2022/01/15 12:35:50;;;;;;;;;75.67;68.67;;;;;10.04;51.09;102153.63;5055636;28;45470;-63
2022/01/15 12:38:27;;;;;;;;;77.00;68.00;;;;;9.92;51.77;102154.16;5055403;28;45555;-62
2022/01/15 12:41:05;;;;;;;;;100.33;85.33;;;;;9.76;51.67;102138.88;5055550;28;45353;-67
2022/01/15 12:43:32;;;;;;;;;94.00;85.00;;;;;9.70;51.90;102150.03;5055343;28;45506;-62
2022/01/15 12:46:04;;;;;;;;;79.67;71.00;;;;;9.63;52.57;102147.22;5055343;28;45669;-63
2022/01/15 12:48:34;;;;;;;;;79.33;69.00;;;;;9.50;52.23;102136.41;5054297;28;45507;-62
2022/01/15 12:51:10;;;;;;;;;78.00;63.00;;;;;9.45;52.53;102124.06;5053962;28;46971;-61
2022/01/15 12:53:40;;;;;;;;;76.67;60.67;;;;;9.43;52.45;102128.34;5054184;28;45375;-63
2022/01/15 12:56:12;;;;;;;;;80.33;70.67;;;;;9.38;52.90;102130.84;5059401;28;45434;-62
2022/01/15 12:58:41;;;;;;;;;72.67;58.00;;;;;9.30;53.09;102116.63;5059701;28;45648;-64
2022/01/15 13:01:10;;;;;;;;;82.67;70.00;;;;;9.28;53.28;102115.72;5056467;28;46311;-61
2022/01/15 13:03:37;;;;;;;;;81.00;67.00;;;;;9.27;53.32;102114.81;5051843;28;45980;-62
2022/01/15 13:06:04;;;;;;;;;73.33;62.33;;;;;9.22;53.14;102115.53;5054903;28;45462;-62
2022/01/15 13:08:33;;;;;;;;;84.33;74.00;;;;;9.18;53.41;102109.31;5055332;28;45327;-61
2022/01/15 13:11:04;;;;;;;;;88.33;74.00;;;;;9.14;53.07;102102.25;5054775;28;46675;-62
2022/01/15 13:13:33;;;;;;;;;81.00;67.33;;;;;9.08;53.28;102094.19;5057068;28;45469;-62
2022/01/15 13:16:10;;;;;;;;;77.33;59.00;;;;;9.03;53.48;102093.19;5058159;28;45382;-63
2022/01/15 13:18:36;;;;;;;;;72.67;58.00;;;;;8.99;53.60;102097.41;5055419;28;45448;-62
2022/01/15 13:21:04;;;;;;;;;78.00;65.00;;;;;8.95;53.59;102085.13;5055561;28;46865;-65
2022/01/15 13:23:38;;;;;;;;;74.00;61.33;;;;;8.95;53.67;102086.84;5054846;28;45544;-65
2022/01/15 13:26:05;;;;;;;;;69.75;52.25;;;;;8.89;53.53;102077.97;5053355;28;45470;-65
2022/01/15 13:28:32;;;;;;;;;74.67;60.67;;;;;8.92;53.65;102085.00;5057221;28;45729;-63
2022/01/15 13:30:58;;;;;;;;;77.00;58.67;;;;;8.89;53.25;102082.31;5056240;28;46327;-66
2022/01/15 13:33:37;;;;;;;;;69.67;54.33;;;;;8.84;53.41;102082.16;5055489;28;45370;-65
2022/01/15 13:36:05;;;;;;;;;87.33;77.00;;;;;8.82;53.42;102075.13;5055465;28;45477;-62
2022/01/15 13:38:35;;;;;;;;;90.67;75.67;;;;;8.74;53.12;102067.06;5057251;28;45572;-64
2022/01/15 13:41:18;;;;;;;;;92.33;79.33;;;;;8.73;53.62;102065.28;5056814;28;46516;-65
2022/01/15 13:43:48;;;;;;;;;81.00;74.00;;;;;8.77;53.31;102077.59;5053770;28;45489;-62
2022/01/15 13:46:17;;;;;;;;;84.67;75.67;;;;;8.69;53.50;102058.19;5035336;28;45535;-64
2022/01/15 13:48:47;;;;;;;;;83.00;72.00;;;;;8.74;53.85;102071.41;5019984;28;45540;-62
2022/01/15 13:54:14;;;;;;;;;92.67;77.67;;;;;8.72;53.75;102063.50;5054668;28;45506;-62
2022/01/15 13:56:50;;;;;;;;;82.67;75.33;;;;;8.68;54.05;102057.31;5054393;28;45438;-64
2022/01/15 13:59:18;;;;;;;;;78.67;68.33;;;;;8.68;54.42;102045.97;5054376;28;45655;-62
2022/01/15 14:01:59;;;;;;;;;77.00;65.67;;;;;8.56;54.15;102025.56;5054109;28;45433;-62
2022/01/15 14:04:33;;;;;;;;;80.67;66.67;;;;;8.60;54.27;102027.47;5047368;28;45528;-62
2022/01/15 14:07:10;;;;;;;;;81.67;71.67;;;;;8.67;54.59;102034.63;5054023;28;45310;-62
2022/01/15 14:09:38;;;;;;;;;90.00;77.67;;;;;8.45;54.83;101993.06;5053573;28;45347;-62
2022/01/15 14:12:09;;;;;;;;;84.33;75.33;;;;;8.19;54.63;101945.22;5051925;28;47542;-61
2022/01/15 14:15:14;;;;;;;;;80.33;65.00;;;;;8.44;54.55;101988.66;5056271;28;45264;-61
2022/01/15 14:17:45;;;;;;;;;76.33;66.33;;;;;8.63;55.14;102011.00;5053543;28;45356;-64
2022/01/15 14:22:49;;;;;;;;;64.25;50.25;;;;;8.25;54.94;101953.22;5053224;28;45874;-63
2022/01/15 14:25:22;;;;;;;;;67.25;50.75;;;;;8.63;55.02;102011.00;5053039;28;45504;-62
2022/01/15 14:28:11;;;;;;;;;66.75;48.50;;;;;8.65;55.64;102011.94;5053468;28;45538;-65
2022/01/15 14:30:41;;;;;;;;;58.50;47.00;;;;;8.56;55.39;101991.63;5053838;28;45507;-62
2022/01/15 14:33:08;;;;;;;;;69.00;53.00;;;;;8.61;55.17;101997.00;5053745;28;45375;-63
2022/01/15 14:35:34;;;;;;;;;75.00;58.00;;;;;8.66;55.36;102009.38;5056004;28;45858;-62
2022/01/15 14:38:03;;;;;;;;;81.00;70.33;;;;;8.69;54.59;102009.44;5057164;28;45588;-62
2022/01/15 14:40:29;;;;;;;;;78.67;67.00;;;;;8.67;55.04;102007.63;5057869;28;45478;-62
2022/01/15 14:42:54;;;;;;;;;74.33;57.67;;;;;8.65;55.09;102004.09;5055024;28;46797;-62
2022/01/15 14:45:20;;;;;;;;;69.25;53.25;;;;;8.63;55.11;102000.53;5055388;28;45449;-66
2022/01/15 14:47:51;;;;;;;;;70.00;52.00;;;;;8.65;55.51;102009.31;5053572;28;45460;-61
2022/01/15 14:50:19;;;;;;;;;65.75;51.00;;;;;8.65;55.41;102010.19;5043796;28;45720;-67
2022/01/15 14:52:45;;;;;;;;;63.25;49.50;;;;;8.65;55.67;102006.69;5053121;28;45604;-68
2022/01/15 14:55:12;;;;;;;;;63.75;48.25;;;;;8.66;55.89;102016.28;5054831;28;45469;-63
2022/01/15 14:57:37;;;;;;;;;60.50;46.50;;;;;8.66;56.03;102018.91;5057977;28;45551;-62
2022/01/15 15:00:06;;;;;;;;;63.50;49.00;;;;;8.46;55.78;101977.41;5055159;28;45514;-63
2022/01/15 15:02:33;;;;;;;;;65.00;49.75;;;;;8.67;55.97;102018.09;5052656;28;45599;-63
2022/01/15 15:04:58;;;;;;;;;59.50;48.00;;;;;8.65;55.84;102018.03;5056148;28;46169;-62
2022/01/15 15:07:24;;;;;;;;;64.75;51.00;;;;;8.66;55.79;102013.69;5053467;28;45535;-66
2022/01/15 15:09:50;;;;;;;;;62.00;48.00;;;;;8.31;56.02;101955.16;5053902;28;45362;-65
2022/01/15 15:12:15;;;;;;;;;62.00;48.25;;;;;8.64;56.13;102012.78;5052352;28;46348;-64
2022/01/15 15:14:41;;;;;;;;;65.00;48.50;;;;;8.63;56.04;102011.88;5052922;28;45381;-62
2022/01/15 15:17:07;;;;;;;;;63.25;50.75;;;;;8.59;56.13;102011.72;5053363;28;45456;-62
2022/01/15 15:19:32;;;;;;;;;65.25;51.50;;;;;8.64;56.45;102028.44;5053612;28;45610;-63
2022/01/15 15:21:58;;;;;;;;;68.75;52.25;;;;;8.60;56.47;102018.75;5053473;28;45901;-60
2022/01/15 15:24:24;;;;;;;;;65.25;51.00;;;;;8.64;56.31;102025.84;5055176;28;45357;-65
2022/01/15 15:26:49;;;;;;;;;474.67;394.33;;;;;8.59;56.18;102025.69;5056709;28;45382;-62
2022/01/15 15:29:17;;;;;;;;;274.25;219.75;;;;;8.63;56.56;102031.88;5048949;28;45379;-62
2022/01/15 15:31:43;;;;;;;;;219.50;183.50;;;;;8.60;56.54;102024.84;5047857;28;45626;-60
2022/01/15 15:34:08;;;;;;;;;183.75;153.75;;;;;8.56;56.72;102025.56;5059606;28;45313;-62
2022/01/15 15:36:36;;;;;;;;;145.75;123.00;;;;;8.62;56.69;102033.63;5059971;28;45259;-61
2022/01/15 15:39:02;;;;;;;;;125.50;107.00;;;;;8.60;57.27;102031.78;5059429;28;45485;-61
2022/01/15 15:41:28;;;;;;;;;110.67;91.00;;;;;8.58;56.93;102025.63;5055048;28;46236;-61
2022/01/15 15:43:54;;;;;;;;;96.67;79.67;;;;;8.58;56.91;102028.25;5057344;28;45501;-60
2022/01/15 15:46:24;;;;;;;;;87.00;73.00;;;;;8.41;57.38;101999.00;5059163;28;45306;-62
2022/01/15 15:48:54;;;;;;;;;74.00;59.00;;;;;8.47;57.20;102013.16;5037909;28;45552;-63
2022/01/15 15:51:22;;;;;;;;;72.50;54.00;;;;;8.53;57.38;102028.09;5053123;28;45623;-62
2022/01/15 15:53:48;;;;;;;;;67.00;51.50;;;;;8.40;57.04;102008.56;5051311;28;45418;-61
2022/01/15 15:56:14;;;;;;;;;68.50;51.75;;;;;8.27;57.42;101995.94;5036364;28;45477;-61
2022/01/15 15:58:40;;;;;;;;;57.75;48.75;;;;;8.41;57.28;102020.78;5055702;28;45571;-66
2022/01/15 16:01:06;;;;;;;;;62.25;46.00;;;;;8.44;57.39;102027.81;5054533;28;45498;-65
2022/01/15 16:03:35;;;;;;;;;54.00;43.25;;;;;8.40;57.45;102032.06;5058688;28;45584;-66
2022/01/15 16:06:03;;;;;;;;;58.50;45.00;;;;;8.18;57.37;101998.25;5058347;28;45577;-65
2022/01/15 16:08:29;;;;;;;;;60.25;45.25;;;;;7.89;57.52;101950.34;5054752;28;45482;-64
2022/01/15 16:10:55;;;;;;;;;60.75;45.25;;;;;8.31;57.68;102023.91;5040828;28;48157;-65
2022/01/15 16:13:20;;;;;;;;;59.25;45.75;;;;;7.89;58.32;101955.56;5054711;28;45773;-64
2022/01/15 16:15:46;;;;;;;;;56.50;45.00;;;;;8.00;57.61;101975.94;5054602;28;46288;-64
2022/01/15 16:18:13;;;;;;;;;58.75;45.75;;;;;8.23;57.74;102020.16;5054625;28;45742;-65
2022/01/15 16:20:38;;;;;;;;;56.50;44.50;;;;;8.21;57.95;102020.13;5051321;28;45525;-62
2022/01/15 16:23:04;;;;;;;;;52.75;42.75;;;;;8.18;57.90;102019.13;5051933;28;45557;-64
2022/01/15 16:25:30;;;;;;;;;55.50;42.50;;;;;8.17;57.82;102015.63;5055204;28;45355;-61
2022/01/15 16:27:56;;;;;;;;;57.50;42.50;;;;;8.14;58.08;102020.75;5055481;28;45760;-65
2022/01/15 16:30:21;;;;;;;;;54.00;41.25;;;;;7.98;58.15;101997.59;5053511;28;45524;-62
2022/01/15 16:32:47;;;;;;;;;50.25;39.75;;;;;8.10;57.95;102025.81;5049802;28;45419;-66
2022/01/15 16:35:13;;;;;;;;;55.50;43.25;;;;;7.82;58.14;101975.34;5054219;28;45760;-64
2022/01/15 16:37:40;;;;;;;;;52.25;41.75;;;;;8.07;58.10;102021.41;5054102;28;45736;-62
2022/01/15 16:40:10;;;;;;;;;48.50;37.75;;;;;8.07;58.09;102029.22;5054352;28;46303;-63
2022/01/15 16:42:36;;;;;;;;;49.25;40.25;;;;;8.00;58.46;102020.31;5053986;28;45434;-64
2022/01/15 16:45:05;;;;;;;;;51.25;41.00;;;;;8.03;58.08;102033.44;5054259;28;45444;-64
2022/01/15 16:47:31;;;;;;;;;53.50;40.00;;;;;7.81;58.18;102007.50;5056595;28;45607;-63
2022/01/15 16:49:57;;;;;;;;;51.75;43.00;;;;;8.03;58.38;102046.50;5054005;28;45831;-63
2022/01/15 16:52:27;;;;;;;;;54.75;42.25;;;;;7.88;58.56;102025.13;5053927;28;45347;-65
2022/01/15 16:54:53;;;;;;;;;53.50;41.50;;;;;7.30;58.52;101929.25;5054052;28;45564;-65
2022/01/15 16:57:18;;;;;;;;;43.50;36.00;;;;;7.98;58.50;102047.19;5054165;28;45443;-64
2022/01/15 16:59:44;;;;;;;;;54.25;41.00;;;;;7.91;58.10;102046.09;5053626;28;45822;-64
2022/01/15 17:02:09;;;;;;;;;49.50;39.00;;;;;7.88;58.81;102046.00;5038817;28;45514;-63
2022/01/15 17:04:35;;;;;;;;;51.00;38.25;;;;;7.88;58.67;102043.38;5053748;28;45388;-64
2022/01/15 17:07:01;;;;;;;;;42.50;34.50;;;;;7.90;58.77;102053.84;5054734;28;45395;-65
2022/01/15 17:09:27;;;;;;;;;46.50;37.00;;;;;7.88;58.75;102046.00;5053475;28;45341;-68
2022/01/15 17:11:52;;;;;;;;;42.75;33.00;;;;;7.79;58.54;102028.28;5049308;28;45573;-62
2022/01/15 17:14:26;;;;;;;;;37.00;33.50;;;;;7.70;58.88;102016.66;5058112;28;45491;-62
2022/01/15 17:16:53;;;;;;;;;45.25;35.00;;;;;7.83;58.94;102042.31;5039055;28;45864;-62
2022/01/15 17:19:18;;;;;;;;;48.25;35.50;;;;;7.81;59.04;102039.66;5053290;28;45738;-62
2022/01/15 17:21:44;;;;;;;;;49.25;38.50;;;;;7.76;59.00;102036.03;5055362;28;45492;-62
2022/01/15 17:24:10;;;;;;;;;45.75;36.25;;;;;7.77;58.83;102042.13;5055105;28;45470;-63
2022/01/15 17:26:36;;;;;;;;;39.75;33.00;;;;;7.75;58.87;102035.97;5053497;28;45637;-62
2022/01/15 17:29:06;;;;;;;;;47.00;36.25;;;;;7.72;59.08;102035.84;5053008;28;45752;-62
2022/01/15 17:31:32;;;;;;;;;43.25;35.75;;;;;7.63;59.00;102023.38;5053226;28;45398;-61
2022/01/15 17:33:58;;;;;;;;;47.00;34.75;;;;;7.67;59.30;102029.59;5054109;28;45367;-64
2022/01/15 17:36:24;;;;;;;;;44.00;36.75;;;;;7.65;58.86;102032.16;5053499;28;45482;-62
2022/01/15 17:38:54;;;;;;;;;41.75;35.25;;;;;7.63;58.82;102032.09;5053537;28;45477;-62
2022/01/15 17:41:21;;;;;;;;;48.25;36.75;;;;;7.53;59.02;102022.19;5056228;28;45576;-62
2022/01/15 17:43:47;;;;;;;;;42.25;35.75;;;;;7.56;59.24;102024.00;5056405;28;45479;-61
2022/01/15 17:46:13;;;;;;;;;49.00;37.00;;;;;7.58;59.03;102033.66;5052639;28;45442;-62
2022/01/15 17:48:39;;;;;;;;;41.25;33.25;;;;;7.53;59.53;102032.59;5053217;28;45954;-61
2022/01/15 17:51:05;;;;;;;;;44.50;34.75;;;;;7.57;59.55;102047.53;5053536;28;45695;-65
2022/01/15 17:53:31;;;;;;;;;36.50;32.25;;;;;7.51;59.39;102044.69;5052760;28;45560;-62
2022/01/15 17:56:02;;;;;;;;;48.75;38.25;;;;;7.46;59.32;102043.66;5053968;28;45426;-61
2022/01/15 17:58:33;;;;;;;;;48.50;36.50;;;;;7.19;59.52;102001.88;5054577;28;45674;-61
2022/01/15 18:01:01;;;;;;;;;39.75;33.50;;;;;7.48;59.15;102047.19;5056701;28;45446;-62
2022/01/15 18:03:31;;;;;;;;;42.50;34.25;;;;;7.50;59.18;102044.63;5054029;28;45522;-63
2022/01/15 18:06:06;;;;;;;;;39.50;30.75;;;;;7.30;59.66;102021.34;5054338;28;45457;-65
2022/01/15 18:08:35;;;;;;;;;48.00;35.00;;;;;7.46;59.45;102054.06;5054345;28;45545;-64
2022/01/15 18:11:02;;;;;;;;;44.00;36.00;;;;;6.39;59.39;101862.66;5036135;28;45608;-63
2022/01/15 18:13:28;;;;;;;;;47.50;36.50;;;;;7.40;59.49;102049.53;5054387;28;45776;-61
2022/01/15 18:15:54;;;;;;;;;41.00;33.50;;;;;7.18;59.61;102018.31;5036481;28;45489;-62
2022/01/15 18:18:20;;;;;;;;;44.50;36.00;;;;;7.42;59.65;102067.81;5053878;28;45324;-63
2022/01/15 18:20:46;;;;;;;;;36.50;32.25;;;;;7.40;59.57;102062.56;5035550;28;45748;-61
2022/01/15 18:23:12;;;;;;;;;41.25;34.25;;;;;7.40;59.08;102061.66;5039266;28;45675;-61
2022/01/15 18:25:48;;;;;;;;;39.75;31.00;;;;;7.41;59.04;102066.06;5054053;28;45519;-61
2022/01/15 18:28:15;;;;;;;;;40.50;33.50;;;;;7.40;59.76;102069.47;5053809;28;46007;-62
2022/01/15 18:30:41;;;;;;;;;46.50;34.75;;;;;7.40;59.18;102069.47;5053680;28;45456;-63
2022/01/15 18:33:07;;;;;;;;;39.75;32.75;;;;;7.36;59.26;102059.81;5036180;28;45510;-62
2022/01/15 18:35:34;;;;;;;;;40.75;30.25;;;;;7.35;59.52;102063.22;5054292;28;45245;-61
2022/01/15 18:38:00;;;;;;;;;43.75;33.50;;;;;7.36;59.71;102072.84;5053225;28;46053;-63
2022/01/15 18:40:26;;;;;;;;;39.75;31.75;;;;;7.38;59.85;102071.13;5053366;28;45426;-61
2022/01/15 18:42:52;;;;;;;;;37.50;31.75;;;;;7.36;59.59;102072.84;5054071;28;45337;-62
2022/01/15 18:45:27;;;;;;;;;39.75;31.50;;;;;7.28;59.22;102063.84;5057072;28;45387;-62
2022/01/15 18:47:54;;;;;;;;;40.75;31.25;;;;;7.31;59.70;102077.88;5053997;28;45958;-62
2022/01/15 18:50:23;;;;;;;;;43.75;36.25;;;;;7.28;59.88;102080.34;5053370;28;45458;-62
2022/01/15 18:52:57;;;;;;;;;39.75;33.50;;;;;7.31;59.60;102087.38;5053989;28;45602;-62
2022/01/15 18:55:29;;;;;;;;;42.75;34.50;;;;;7.29;59.58;102096.91;5054161;28;45293;-61
2022/01/15 18:57:58;;;;;;;;;41.00;33.25;;;;;7.27;59.20;102102.03;5053964;28;46284;-62
2022/01/15 19:00:25;;;;;;;;;47.00;33.25;;;;;6.24;59.71;101936.69;5057259;28;45363;-61
2022/01/15 19:02:52;;;;;;;;;48.75;35.00;;;;;7.22;59.51;102116.63;5057916;28;45378;-61
2022/01/15 19:05:19;;;;;;;;;38.75;33.00;;;;;7.10;59.68;102106.63;5057831;28;45338;-63
2022/01/15 19:07:45;;;;;;;;;42.00;34.50;;;;;7.06;59.76;102109.94;5056646;28;46283;-63
2022/01/15 19:10:11;;;;;;;;;41.75;36.00;;;;;6.99;59.82;102107.91;5038411;28;45511;-62
2022/01/15 19:12:38;;;;;;;;;42.00;34.25;;;;;7.11;59.84;102144.84;5057084;28;45312;-62
2022/01/15 19:15:08;;;;;;;;;37.00;32.25;;;;;7.09;59.30;102150.84;5056467;28;45450;-62
2022/01/15 19:17:36;;;;;;;;;34.75;31.50;;;;;7.07;59.41;102156.00;5056891;28;45568;-62
2022/01/15 19:20:05;;;;;;;;;37.50;30.00;;;;;6.88;59.61;102138.78;5057020;28;45728;-63
2022/01/15 19:22:31;;;;;;;;;34.75;32.50;;;;;7.03;59.81;102187.97;5057019;28;45430;-64
2022/01/15 19:24:57;;;;;;;;;44.00;33.25;;;;;6.88;59.40;102195.16;5038671;28;45376;-61
2022/01/15 19:27:29;;;;;;;;;40.25;32.50;;;;;6.87;59.84;102190.78;5041847;28;46337;-62
2022/01/15 19:29:55;;;;;;;;;40.75;32.25;;;;;6.99;59.67;102180.84;5056523;28;45662;-64
2022/01/15 19:32:22;;;;;;;;;36.25;32.25;;;;;6.97;59.47;102201.63;5056422;28;45625;-63
2022/01/15 19:34:48;;;;;;;;;41.75;32.25;;;;;6.91;59.81;102200.50;5039007;28;45609;-63
2022/01/15 19:37:14;;;;;;;;;39.50;33.25;;;;;6.64;59.48;102189.84;5037863;28;47297;-62
2022/01/15 19:39:40;;;;;;;;;39.50;31.75;;;;;6.72;59.62;102180.66;5056576;28;45312;-67
2022/01/15 19:42:06;;;;;;;;;45.50;31.25;;;;;6.90;59.64;102128.41;5056450;28;45850;-68
2022/01/15 19:44:31;;;;;;;;;36.00;31.75;;;;;6.87;59.77;102102.25;5056374;28;45415;-62
2022/01/15 19:46:57;;;;;;;;;46.25;32.50;;;;;6.69;59.29;102051.22;5055902;28;45999;-64
2022/01/15 19:49:23;;;;;;;;;38.25;31.75;;;;;6.82;59.14;102041.28;5055874;28;45732;-64
2022/01/15 19:51:49;;;;;;;;;37.75;33.00;;;;;6.82;59.56;102033.47;5059078;28;45491;-66
2022/01/15 19:54:17;;;;;;;;;39.25;32.75;;;;;6.79;59.71;102019.50;5060649;28;45196;-65
2022/01/15 19:56:44;;;;;;;;;40.25;34.75;;;;;6.70;59.51;102057.31;5056654;28;45455;-63
2022/01/15 19:59:10;;;;;;;;;41.75;33.75;;;;;6.66;59.62;102047.59;5056398;28;45491;-63
2022/01/15 20:01:35;;;;;;;;;39.00;32.25;;;;;6.73;59.32;102081.75;5056050;28;45334;-61
2022/01/15 20:04:01;;;;;;;;;42.50;34.50;;;;;6.64;59.42;102057.94;5056788;28;45505;-62
2022/01/15 20:06:27;;;;;;;;;45.00;34.25;;;;;6.62;59.34;102106.50;5058248;28;45346;-62
2022/01/15 20:08:52;;;;;;;;;41.75;33.25;;;;;6.61;59.34;102125.53;5038256;28;45264;-62
2022/01/15 20:11:18;;;;;;;;;44.00;35.25;;;;;6.63;59.16;102139.50;5055797;28;45759;-60
2022/01/15 20:13:46;;;;;;;;;38.75;33.50;;;;;6.57;59.57;102131.41;5056205;28;45356;-61
2022/01/15 20:16:13;;;;;;;;;41.00;34.00;;;;;6.59;59.14;102142.78;5055926;28;46698;-63
2022/01/15 20:18:41;;;;;;;;;38.50;31.50;;;;;6.37;59.44;102078.56;5058124;28;45366;-62
2022/01/15 20:21:07;;;;;;;;;40.50;31.75;;;;;6.52;59.60;102104.31;5057117;28;45351;-62
2022/01/15 20:23:33;;;;;;;;;38.75;32.00;;;;;6.49;59.14;102086.88;5055194;28;45635;-62
2022/01/15 20:25:59;;;;;;;;;37.50;32.00;;;;;6.40;59.44;102070.00;5055935;28;46392;-64
2022/01/15 20:28:25;;;;;;;;;38.00;33.75;;;;;6.43;59.18;102098.75;5054570;28;45453;-61
2022/01/15 20:30:51;;;;;;;;;39.50;33.00;;;;;6.40;59.47;102096.91;5056205;28;45308;-61
2022/01/15 20:33:21;;;;;;;;;47.00;35.00;;;;;6.30;59.06;102095.63;5037866;28;45493;-61
2022/01/15 20:35:47;;;;;;;;;41.75;33.50;;;;;6.23;59.51;102096.22;5054182;28;47416;-60
2022/01/15 20:38:13;;;;;;;;;41.00;32.25;;;;;6.31;59.48;102109.53;5054839;28;45391;-61
2022/01/15 20:40:39;;;;;;;;;39.75;34.00;;;;;6.19;59.19;102159.34;5055705;28;45450;-60
2022/01/15 20:43:06;;;;;;;;;36.50;31.00;;;;;6.21;59.61;102138.59;5056230;28;45454;-62
2022/01/15 20:45:32;;;;;;;;;38.50;33.25;;;;;6.13;59.18;102136.56;5057222;28;45982;-62
2022/01/15 20:48:01;;;;;;;;;42.00;29.00;;;;;6.16;59.46;102120.19;5057307;28;45559;-61
2022/01/15 20:50:31;;;;;;;;;41.75;33.50;;;;;6.05;58.94;102106.75;5055490;28;45402;-64
2022/01/15 20:52:58;;;;;;;;;40.50;33.00;;;;;6.05;58.94;102083.34;5037668;28;45450;-65
2022/01/15 20:55:25;;;;;;;;;44.50;33.75;;;;;6.12;58.69;102140.00;5055535;28;46055;-60
2022/01/15 20:57:51;;;;;;;;;45.75;33.75;;;;;6.08;59.01;102137.22;5055742;28;45517;-62
2022/01/15 21:00:20;;;;;;;;;40.00;33.75;;;;;6.06;58.93;102111.13;5054085;28;45321;-63
2022/01/15 21:02:47;;;;;;;;;38.50;31.00;;;;;5.80;58.88;102109.09;5055633;28;45439;-61
2022/01/15 21:05:13;;;;;;;;;35.25;31.00;;;;;6.01;59.29;102145.56;5055165;28;46222;-62
2022/01/15 21:07:39;;;;;;;;;43.50;29.50;;;;;5.98;58.88;102168.81;5058986;28;45470;-60
2022/01/15 21:10:07;;;;;;;;;46.00;33.00;;;;;5.91;58.86;102155.53;5058779;28;45578;-63
2022/01/15 21:12:33;;;;;;;;;38.00;31.00;;;;;5.91;59.12;102171.13;5055505;28;45482;-64
2022/01/15 21:14:59;;;;;;;;;35.75;31.25;;;;;5.90;58.99;102182.34;5055131;28;46212;-62
2022/01/15 21:17:26;;;;;;;;;39.50;29.50;;;;;5.86;58.55;102185.66;5054725;28;45328;-65
2022/01/15 21:19:51;;;;;;;;;39.00;34.00;;;;;5.80;58.73;102185.38;5054808;28;45556;-63
2022/01/15 21:22:18;;;;;;;;;34.25;28.75;;;;;5.80;58.58;102172.38;5039090;28;45656;-62
2022/01/15 21:24:45;;;;;;;;;49.75;37.25;;;;;5.80;58.59;102194.88;5055284;28;45438;-64
2022/01/15 21:27:11;;;;;;;;;43.25;33.25;;;;;5.78;59.08;102188.72;5057388;28;45368;-61
2022/01/15 21:29:36;;;;;;;;;41.75;32.00;;;;;5.68;58.99;102179.63;5040812;28;45388;-64
2022/01/15 21:32:05;;;;;;;;;39.75;32.50;;;;;5.73;58.92;102192.00;5056579;28;45453;-65
2022/01/15 21:34:31;;;;;;;;;39.75;32.25;;;;;5.72;59.21;102176.34;5054713;28;45488;-67
2022/01/15 21:36:57;;;;;;;;;34.75;31.25;;;;;5.58;59.32;102156.66;5054670;28;45734;-62
2022/01/15 21:39:23;;;;;;;;;38.75;31.00;;;;;5.69;59.02;102176.19;5058800;28;45473;-62
2022/01/15 21:41:51;;;;;;;;;33.75;25.75;;;;;5.67;59.27;102176.16;5041040;28;45286;-64
2022/01/15 21:44:17;;;;;;;;;34.75;28.00;;;;;5.63;58.88;102179.41;5056242;28;45410;-66
2022/01/15 21:46:48;;;;;;;;;31.25;28.50;;;;;5.64;59.51;102182.91;5054474;28;45459;-63
2022/01/15 21:49:15;;;;;;;;;37.75;31.75;;;;;5.55;58.98;102159.09;5052685;28;45584;-66
2022/01/15 21:51:41;;;;;;;;;33.75;27.25;;;;;5.62;59.78;102197.53;5054899;28;45600;-63
2022/01/15 21:54:07;;;;;;;;;33.75;27.50;;;;;5.57;58.92;102189.53;5055293;28;46316;-62
2022/01/15 21:56:33;;;;;;;;;38.00;29.75;;;;;5.61;59.42;102194.03;5054716;28;45365;-61
2022/01/15 21:58:59;;;;;;;;;38.75;29.50;;;;;4.98;58.85;102096.72;5054647;28;45957;-61
2022/01/15 22:01:25;;;;;;;;;33.50;28.75;;;;;5.59;59.27;102213.88;5054264;28;46152;-60
2022/01/15 22:03:51;;;;;;;;;32.50;27.25;;;;;5.45;59.56;102184.66;5053723;28;45616;-65